createdAt,value
2022-12-28T00:01:13.710Z,12.48
2022-12-28T00:03:40.553Z,13.30
2022-12-28T00:06:07.309Z,10.05
2022-12-28T00:08:33.965Z,13.05
2022-12-28T00:11:08.870Z,17.45
2022-12-28T00:13:37.993Z,16.38
2022-12-28T00:16:35.129Z,15.85
2022-12-28T00:19:04.767Z,19.52
2022-12-28T00:21:31.859Z,19.45
2022-12-28T00:23:59.989Z,16.63
2022-12-28T00:26:29.146Z,14.32
2022-12-28T00:29:03.635Z,14.90
2022-12-28T00:31:32.404Z,17.30
2022-12-28T00:33:59.118Z,15.73
2022-12-28T00:37:08.885Z,24.60
2022-12-28T00:41:40.329Z,14.90
2022-12-28T00:44:07.278Z,20.73
2022-12-28T00:46:33.893Z,16.25
2022-12-28T00:49:00.540Z,20.45
2022-12-28T00:51:27.411Z,19.90
2022-12-28T00:53:54.075Z,15.98
2022-12-28T00:56:22.587Z,18.80
2022-12-28T00:58:50.005Z,19.23
2022-12-28T01:01:19.764Z,16.60
2022-12-28T01:03:47.012Z,19.23
2022-12-28T01:06:16.689Z,22.88
2022-12-28T01:08:43.969Z,22.55
2022-12-28T01:11:21.799Z,16.38
2022-12-28T01:13:49.642Z,18.08
2022-12-28T01:16:21.494Z,17.25
2022-12-28T01:18:49.371Z,21.27
2022-12-28T01:21:18.717Z,24.65
2022-12-28T01:23:47.103Z,21.00
2022-12-28T01:26:14.502Z,24.45
2022-12-28T01:28:41.136Z,19.55
2022-12-28T01:31:12.194Z,22.38
2022-12-28T01:33:39.690Z,21.10
2022-12-28T01:36:08.382Z,15.02
2022-12-28T01:38:39.289Z,17.15
2022-12-28T01:41:11.106Z,16.90
2022-12-28T01:43:43.252Z,17.45
2022-12-28T01:46:15.557Z,14.93
2022-12-28T01:48:49.735Z,20.23
2022-12-28T01:51:18.990Z,21.02
2022-12-28T01:53:47.063Z,21.83
2022-12-28T01:56:13.846Z,18.63
2022-12-28T01:58:40.746Z,20.52
2022-12-28T02:01:07.663Z,19.23
2022-12-28T02:03:35.459Z,22.85
2022-12-28T02:06:06.497Z,16.65
2022-12-28T02:08:51.962Z,16.83
2022-12-28T02:11:19.867Z,22.08
2022-12-28T02:13:48.921Z,17.70
2022-12-28T02:16:15.905Z,17.55
2022-12-28T02:18:44.929Z,21.83
2022-12-28T02:21:27.721Z,30.23
2022-12-28T02:24:29.544Z,27.98
2022-12-28T02:27:13.046Z,27.02
2022-12-28T02:29:56.025Z,18.70
2022-12-28T02:32:34.968Z,25.08
2022-12-28T02:35:19.672Z,28.88
2022-12-28T02:37:52.803Z,18.17
2022-12-28T02:40:28.197Z,20.92
2022-12-28T02:42:55.560Z,19.98
2022-12-28T02:45:47.479Z,22.40
2022-12-28T02:48:29.384Z,18.17
2022-12-28T02:51:14.883Z,17.88
2022-12-28T02:53:59.853Z,22.55
2022-12-28T02:56:46.379Z,20.00
2022-12-28T02:59:34.936Z,19.10
2022-12-28T03:02:29.544Z,18.98
2022-12-28T03:05:51.310Z,19.55
2022-12-28T03:08:27.297Z,16.90
2022-12-28T03:11:04.403Z,19.05
2022-12-28T03:13:48.203Z,19.48
2022-12-28T03:16:28.619Z,17.48
2022-12-28T03:19:17.661Z,20.02
2022-12-28T03:21:59.997Z,21.65
2022-12-28T03:24:44.618Z,15.85
2022-12-28T03:27:29.942Z,16.63
2022-12-28T03:30:19.216Z,19.23
2022-12-28T03:32:48.021Z,15.68
2022-12-28T03:35:17.190Z,16.92
2022-12-28T03:37:53.997Z,17.10
2022-12-28T03:40:49.565Z,19.38
2022-12-28T03:43:39.197Z,19.38
2022-12-28T03:46:14.376Z,15.45
2022-12-28T03:48:43.275Z,17.38
2022-12-28T03:51:12.105Z,20.13
2022-12-28T03:53:43.455Z,18.70
2022-12-28T03:56:13.620Z,15.60
2022-12-28T03:58:40.292Z,18.13
2022-12-28T04:01:07.237Z,12.57
2022-12-28T04:03:34.199Z,21.70
2022-12-28T04:06:01.165Z,19.45
2022-12-28T04:08:28.233Z,15.13
2022-12-28T04:10:55.522Z,20.17
2022-12-28T04:13:22.118Z,21.48
2022-12-28T04:16:05.369Z,18.65
2022-12-28T04:18:33.268Z,18.25
2022-12-28T04:21:00.573Z,15.57
2022-12-28T04:23:27.766Z,16.45
2022-12-28T04:26:02.651Z,22.75
2022-12-28T04:28:30.220Z,16.38
2022-12-28T04:30:57.908Z,20.88
2022-12-28T04:33:25.477Z,20.63
2022-12-28T04:35:54.090Z,22.30
2022-12-28T04:38:21.355Z,19.48
2022-12-28T04:40:47.985Z,18.17
2022-12-28T04:43:14.661Z,16.00
2022-12-28T04:45:41.304Z,17.50
2022-12-28T04:48:07.969Z,17.58
2022-12-28T04:50:36.349Z,18.83
2022-12-28T04:53:02.989Z,18.80
2022-12-28T04:55:32.452Z,21.60
2022-12-28T04:58:00.661Z,20.23
2022-12-28T05:00:27.609Z,19.98
2022-12-28T05:02:54.359Z,15.90
2022-12-28T05:05:21.038Z,23.48
2022-12-28T05:07:47.713Z,17.40
2022-12-28T05:10:14.467Z,19.48
2022-12-28T05:12:41.144Z,18.40
2022-12-28T05:15:08.112Z,19.13
2022-12-28T05:17:34.742Z,22.15
2022-12-28T05:20:01.383Z,15.45
2022-12-28T05:22:28.282Z,15.32
2022-12-28T05:24:55.477Z,18.52
2022-12-28T05:27:22.103Z,19.98
2022-12-28T05:29:48.833Z,17.58
2022-12-28T05:32:15.936Z,15.43
2022-12-28T05:34:42.586Z,17.90
2022-12-28T05:37:09.219Z,22.05
2022-12-28T05:39:39.080Z,19.30
2022-12-28T05:42:05.932Z,16.58
2022-12-28T05:44:32.686Z,19.13
2022-12-28T05:46:59.373Z,20.88
2022-12-28T05:49:26.029Z,20.70
2022-12-28T05:51:52.706Z,19.88
2022-12-28T05:54:19.981Z,24.45
2022-12-28T05:56:49.594Z,24.60
2022-12-28T05:59:16.281Z,25.08
2022-12-28T06:01:44.271Z,21.60
2022-12-28T06:04:16.989Z,22.52
2022-12-28T06:06:44.847Z,20.70
2022-12-28T06:09:12.429Z,21.35
2022-12-28T06:11:39.508Z,22.65
2022-12-28T06:14:06.601Z,23.17
2022-12-28T06:16:36.062Z,23.33
2022-12-28T06:19:05.940Z,18.90
2022-12-28T06:21:34.613Z,17.83
2022-12-28T06:24:02.911Z,16.48
2022-12-28T06:26:31.324Z,21.85
2022-12-28T06:28:58.827Z,24.42
2022-12-28T06:31:28.264Z,26.92
2022-12-28T06:33:58.428Z,21.67
2022-12-28T06:36:28.161Z,19.70
2022-12-28T06:38:57.174Z,24.30
2022-12-28T06:41:25.041Z,20.17
2022-12-28T06:43:52.285Z,21.77
2022-12-28T06:46:20.808Z,19.90
2022-12-28T06:48:47.764Z,23.58
2022-12-28T06:51:17.954Z,23.85
2022-12-28T06:53:46.824Z,19.92
2022-12-28T06:56:20.068Z,27.02
2022-12-28T06:58:48.566Z,27.58
2022-12-28T07:01:20.454Z,27.27
2022-12-28T07:03:49.840Z,24.55
2022-12-28T07:06:18.744Z,24.65
2022-12-28T07:08:46.116Z,25.48
2022-12-28T07:11:16.062Z,26.27
2022-12-28T07:13:43.246Z,21.80
2022-12-28T07:16:14.334Z,22.25
2022-12-28T07:18:42.141Z,23.73
2022-12-28T07:21:12.488Z,29.17
2022-12-28T07:23:39.171Z,19.88
2022-12-28T07:26:14.337Z,21.98
2022-12-28T07:28:43.924Z,18.27
2022-12-28T07:31:14.862Z,24.77
2022-12-28T07:33:41.979Z,23.95
2022-12-28T07:36:11.456Z,28.23
2022-12-28T07:38:38.837Z,29.45
2022-12-28T07:41:08.522Z,25.35
2022-12-28T07:43:35.692Z,27.50
2022-12-28T07:46:05.488Z,23.15
2022-12-28T07:48:33.413Z,26.65
2022-12-28T07:51:10.603Z,25.88
2022-12-28T07:53:39.020Z,28.88
2022-12-28T07:56:06.732Z,29.63
2022-12-28T07:58:33.764Z,31.38
2022-12-28T08:01:11.271Z,33.33
2022-12-28T08:03:40.612Z,27.20
2022-12-28T08:06:11.079Z,28.65
2022-12-28T08:08:39.532Z,28.98
2022-12-28T08:11:08.837Z,30.05
2022-12-28T08:13:37.850Z,24.77
2022-12-28T08:16:05.744Z,23.80
2022-12-28T08:18:33.728Z,22.35
2022-12-28T08:21:02.831Z,22.33
2022-12-28T08:23:30.627Z,22.85
2022-12-28T08:26:04.569Z,21.73
2022-12-28T08:28:31.181Z,27.08
2022-12-28T08:30:57.792Z,19.23
2022-12-28T08:33:24.679Z,21.17
2022-12-28T08:35:51.311Z,20.05
2022-12-28T08:38:17.923Z,19.80
2022-12-28T08:40:44.571Z,23.58
2022-12-28T08:43:11.175Z,29.23
2022-12-28T08:45:37.826Z,24.50
2022-12-28T08:48:04.841Z,21.20
2022-12-28T08:50:33.203Z,28.73
2022-12-28T08:52:59.881Z,18.52
2022-12-28T08:55:26.617Z,19.02
2022-12-28T08:57:53.284Z,19.85
2022-12-28T09:00:19.977Z,24.25
2022-12-28T09:02:46.738Z,30.77
2022-12-28T09:05:13.413Z,21.55
2022-12-28T09:07:40.012Z,29.15
2022-12-28T09:10:07.442Z,30.83
2022-12-28T09:12:37.298Z,30.63
2022-12-28T09:15:04.271Z,37.25
2022-12-28T09:17:30.866Z,33.75
2022-12-28T09:19:57.483Z,25.80
2022-12-28T09:22:24.139Z,25.15
2022-12-28T09:24:50.740Z,31.73
2022-12-28T09:27:17.379Z,37.78
2022-12-28T09:29:43.975Z,35.17
2022-12-28T09:32:10.577Z,32.17
2022-12-28T09:34:38.308Z,43.08
2022-12-28T09:37:07.056Z,49.35
2022-12-28T09:39:33.746Z,39.22
2022-12-28T09:42:14.741Z,39.55
2022-12-28T09:44:42.360Z,36.40
2022-12-28T09:47:25.381Z,38.67
2022-12-28T09:50:25.083Z,39.63
2022-12-28T09:52:59.053Z,37.60
2022-12-28T09:55:27.419Z,43.35
2022-12-28T09:57:57.376Z,38.80
2022-12-28T10:00:28.768Z,39.70
2022-12-28T10:03:00.704Z,43.65
2022-12-28T10:05:27.971Z,40.03
2022-12-28T10:08:04.762Z,36.65
2022-12-28T10:10:31.881Z,43.63
2022-12-28T10:13:37.062Z,36.72
2022-12-28T10:15:59.814Z,33.35
2022-12-28T10:18:28.296Z,43.95
2022-12-28T10:20:55.774Z,35.78
2022-12-28T10:23:27.739Z,48.22
2022-12-28T10:25:56.624Z,52.42
2022-12-28T10:28:28.514Z,45.03
2022-12-28T10:31:06.318Z,46.53
2022-12-28T10:33:33.254Z,40.00
2022-12-28T10:36:00.372Z,48.13
2022-12-28T10:38:31.631Z,38.53
2022-12-28T10:41:00.665Z,31.75
2022-12-28T10:43:32.742Z,24.35
2022-12-28T10:46:01.947Z,14.73
2022-12-28T10:48:32.979Z,22.80
2022-12-28T10:51:00.592Z,16.08
2022-12-28T10:53:33.061Z,21.83
2022-12-28T10:56:15.024Z,14.15
2022-12-28T10:58:46.124Z,12.77
2022-12-28T11:01:18.040Z,12.45
2022-12-28T11:04:01.195Z,10.40
2022-12-28T11:06:30.547Z,16.23
2022-12-28T11:09:14.051Z,11.13
2022-12-28T11:11:42.433Z,13.02
2022-12-28T11:14:34.007Z,16.92
2022-12-28T11:17:20.388Z,9.77
2022-12-28T11:19:49.972Z,13.63
2022-12-28T11:22:23.557Z,9.38
2022-12-28T11:24:50.547Z,12.30
2022-12-28T11:27:19.656Z,9.30
2022-12-28T11:29:50.493Z,5.22
2022-12-28T11:32:27.765Z,8.88
2022-12-28T11:34:56.379Z,14.35
2022-12-28T11:37:23.426Z,9.15
2022-12-28T11:39:52.186Z,14.10
2022-12-28T11:42:40.504Z,11.85
2022-12-28T11:45:35.723Z,11.63
2022-12-28T11:48:32.926Z,9.98
2022-12-28T11:51:05.608Z,12.35
2022-12-28T11:53:32.207Z,16.55
2022-12-28T11:56:07.938Z,18.92
2022-12-28T11:58:44.731Z,12.95
2022-12-28T12:01:33.591Z,12.20
2022-12-28T12:04:00.341Z,13.15
2022-12-28T12:06:42.517Z,13.98
2022-12-28T12:09:24.475Z,15.75
2022-12-28T12:11:52.032Z,12.02
2022-12-28T12:14:23.953Z,11.60
2022-12-28T12:16:54.042Z,17.40
2022-12-28T12:19:28.909Z,12.07
2022-12-28T12:22:22.387Z,13.10
2022-12-28T12:24:54.454Z,7.85
2022-12-28T12:27:36.688Z,9.35
2022-12-28T12:30:07.977Z,11.15
2022-12-28T12:32:44.024Z,8.77
2022-12-28T12:35:16.603Z,9.93
2022-12-28T12:38:05.100Z,9.73
2022-12-28T12:40:47.083Z,8.55
2022-12-28T12:43:29.503Z,14.73
2022-12-28T12:46:26.629Z,13.63
2022-12-28T12:49:07.363Z,10.05
2022-12-28T12:51:34.984Z,12.75
2022-12-28T12:54:32.297Z,13.20
2022-12-28T12:57:14.303Z,16.50
2022-12-28T12:59:41.945Z,15.05
2022-12-28T13:02:39.215Z,12.82
2022-12-28T13:10:03.557Z,18.75
2022-12-28T13:12:30.470Z,18.75
2022-12-28T13:15:05.951Z,16.92
2022-12-28T13:17:35.906Z,29.73
2022-12-28T13:20:19.482Z,18.95
2022-12-28T13:22:48.848Z,21.40
2022-12-28T13:25:32.159Z,26.30
2022-12-28T13:28:01.571Z,16.38
2022-12-28T13:30:30.098Z,17.08
2022-12-28T13:32:59.643Z,14.30
2022-12-28T13:35:29.813Z,23.25
2022-12-28T13:38:13.701Z,17.88
2022-12-28T13:40:41.457Z,15.27
2022-12-28T13:43:41.749Z,23.35
2022-12-28T13:46:15.074Z,18.17
2022-12-28T13:48:47.492Z,26.67
2022-12-28T13:51:17.573Z,16.30
2022-12-28T13:53:49.555Z,14.75
2022-12-28T13:56:17.484Z,26.60
2022-12-28T13:58:50.837Z,17.60
2022-12-28T14:01:24.313Z,15.90
2022-12-28T14:04:08.832Z,25.50
2022-12-28T14:06:46.571Z,19.98
2022-12-28T14:09:14.888Z,13.13
2022-12-28T14:11:43.729Z,17.75
2022-12-28T14:14:12.574Z,15.30
2022-12-28T14:16:40.397Z,15.15
2022-12-28T14:19:07.803Z,19.65
2022-12-28T14:21:44.252Z,16.10
2022-12-28T14:24:14.507Z,12.95
2022-12-28T14:26:48.782Z,18.60
2022-12-28T14:29:24.116Z,15.20
2022-12-28T14:31:57.624Z,10.93
2022-12-28T14:34:29.240Z,13.25
2022-12-28T14:36:57.237Z,12.75
2022-12-28T14:39:34.929Z,10.90
2022-12-28T14:42:04.125Z,10.43
2022-12-28T14:44:30.792Z,13.55
2022-12-28T14:46:59.584Z,12.40
2022-12-28T14:49:36.972Z,16.02
2022-12-28T14:52:38.858Z,11.10
2022-12-28T14:55:21.416Z,12.23
2022-12-28T14:57:51.030Z,17.00
2022-12-28T15:00:28.963Z,10.90
2022-12-28T15:02:57.030Z,17.98
2022-12-28T15:05:39.078Z,13.88
2022-12-28T15:08:06.436Z,14.95
2022-12-28T15:10:37.901Z,12.95
2022-12-28T15:13:04.689Z,14.98
2022-12-28T15:15:31.566Z,15.93
2022-12-28T15:17:58.247Z,19.65
2022-12-28T15:20:24.954Z,22.30
2022-12-28T15:22:53.101Z,19.40
2022-12-28T15:25:19.751Z,16.98
2022-12-28T15:27:49.980Z,18.80
2022-12-28T15:30:20.570Z,23.73
2022-12-28T15:32:50.612Z,18.08
2022-12-28T15:35:17.289Z,18.50
2022-12-28T15:37:44.028Z,17.92
2022-12-28T15:40:11.718Z,20.15
2022-12-28T15:42:40.830Z,18.35
2022-12-28T15:45:09.101Z,18.95
2022-12-28T15:47:35.996Z,22.55
2022-12-28T15:50:03.611Z,27.60
2022-12-28T15:52:31.787Z,21.77
